Time;durP1;ratioP1;P1;durP2;ratioP2;P2;SDS_P1;SDS_P2;PMS_P1;PMS_P2;Temp;Humidity;BMP_temperature;BMP_pressure;BME280_temperature;BME280_humidity;BME280_pressure;Samples;Min_cycle;Max_cycle;Signal;HPM_P1;HPM_P2
2020/12/11 00:02:21;;;;;;;36.90;14.73;;;;;;;;;;5020372;28;20560;-78
2020/12/11 00:05:25;;;;;;;40.53;13.87;;;;;;;;;;4991765;28;20590;-78
2020/12/11 00:08:30;;;;;;;31.00;12.40;;;;;;;;;;5001782;28;20546;-79
2020/12/11 00:11:34;;;;;;;38.13;14.27;;;;;;;;;;4979293;28;20546;-78
2020/12/11 00:14:38;;;;;;;36.60;14.27;;;;;;;;;;4970527;28;20597;-78
2020/12/11 00:17:42;;;;;;;37.80;14.63;;;;;;;;;;4958365;28;20648;-78
2020/12/11 00:20:47;;;;;;;36.07;15.63;;;;;;;;;;4983870;28;20604;-78
2020/12/11 00:23:51;;;;;;;41.17;16.30;;;;;;;;;;4998672;28;20539;-78
2020/12/11 00:26:55;;;;;;;41.30;15.43;;;;;;;;;;4997060;28;20649;-78
2020/12/11 00:29:59;;;;;;;32.17;13.33;;;;;;;;;;4996785;28;20611;-78
2020/12/11 00:33:03;;;;;;;33.30;13.70;;;;;;;;;;4959441;28;20602;-78
2020/12/11 00:36:07;;;;;;;31.20;12.90;;;;;;;;;;4960470;28;20622;-78
2020/12/11 00:39:11;;;;;;;29.93;13.27;;;;;;;;;;4983179;28;20542;-79
2020/12/11 00:42:20;;;;;;;26.30;11.97;;;;;;;;;;4987036;28;20597;-78
2020/12/11 00:45:24;;;;;;;22.67;11.87;;;;;;;;;;4967583;28;20542;-78
2020/12/11 00:48:29;;;;;;;26.10;11.93;;;;;;;;;;4989227;28;20601;-78
2020/12/11 00:51:33;;;;;;;20.37;10.97;;;;;;;;;;4994713;28;20624;-78
2020/12/11 00:54:38;;;;;;;24.27;12.37;;;;;;;;;;4991112;28;20637;-79
2020/12/11 00:57:43;;;;;;;24.03;12.23;;;;;;;;;;4966835;28;20625;-78
2020/12/11 01:00:48;;;;;;;20.00;11.40;;;;;;;;;;4967097;28;20537;-78
2020/12/11 01:03:52;;;;;;;19.27;11.93;;;;;;;;;;4988485;28;20538;-78
2020/12/11 01:06:56;;;;;;;21.83;11.57;;;;;;;;;;4988608;28;20621;-78
2020/12/11 01:10:00;;;;;;;22.00;11.97;;;;;;;;;;4989650;28;20941;-78
2020/12/11 01:13:05;;;;;;;22.77;12.50;;;;;;;;;;5001552;28;20546;-78
2020/12/11 01:16:09;;;;;;;23.80;12.87;;;;;;;;;;4989640;28;20653;-78
2020/12/11 01:19:14;;;;;;;24.33;13.77;;;;;;;;;;5008668;28;20545;-78
2020/12/11 01:22:17;;;;;;;23.30;13.70;;;;;;;;;;4982343;28;20590;-78
2020/12/11 01:25:21;;;;;;;24.73;14.40;;;;;;;;;;4987879;28;20597;-78
2020/12/11 01:28:26;;;;;;;24.33;14.23;;;;;;;;;;5002007;28;20589;-78
2020/12/11 01:31:30;;;;;;;24.07;14.53;;;;;;;;;;5007083;28;21176;-78
2020/12/11 01:34:34;;;;;;;28.33;15.20;;;;;;;;;;4995815;28;20584;-77
2020/12/11 01:37:39;;;;;;;27.40;14.60;;;;;;;;;;4983790;28;20624;-78
2020/12/11 01:40:44;;;;;;;29.77;15.47;;;;;;;;;;4993061;28;21150;-78
2020/12/11 01:43:49;;;;;;;32.87;16.87;;;;;;;;;;4995180;28;20956;-78
2020/12/11 01:46:57;;;;;;;32.27;16.97;;;;;;;;;;5003416;28;20677;-78
2020/12/11 01:50:01;;;;;;;37.20;17.87;;;;;;;;;;4984317;28;20538;-78
2020/12/11 01:53:09;;;;;;;37.77;18.13;;;;;;;;;;4969145;28;20592;-78
2020/12/11 01:56:15;;;;;;;33.03;18.33;;;;;;;;;;5006308;28;20637;-77
2020/12/11 01:59:26;;;;;;;34.77;17.73;;;;;;;;;;4984816;28;20550;-77
2020/12/11 02:02:36;;;;;;;37.97;17.70;;;;;;;;;;4983344;28;21119;-77
2020/12/11 02:05:40;;;;;;;36.03;18.07;;;;;;;;;;4989821;28;20585;-78
2020/12/11 02:08:46;;;;;;;35.33;17.53;;;;;;;;;;4975753;28;21108;-77
2020/12/11 02:11:51;;;;;;;35.97;16.70;;;;;;;;;;5003292;28;20581;-77
2020/12/11 02:14:55;;;;;;;36.07;17.53;;;;;;;;;;4990906;28;20637;-77
2020/12/11 02:18:00;;;;;;;30.63;16.17;;;;;;;;;;5014269;28;20616;-77
2020/12/11 02:21:04;;;;;;;30.30;15.47;;;;;;;;;;4994819;28;20573;-77
2020/12/11 02:24:08;;;;;;;29.87;15.17;;;;;;;;;;5011167;28;20596;-77
2020/12/11 02:27:12;;;;;;;29.10;15.63;;;;;;;;;;5014275;28;20620;-76
2020/12/11 02:30:17;;;;;;;29.97;15.93;;;;;;;;;;5013969;28;20608;-76
2020/12/11 02:33:21;;;;;;;29.63;16.57;;;;;;;;;;5003026;28;20576;-76
2020/12/11 02:36:25;;;;;;;29.67;15.67;;;;;;;;;;5001868;28;20627;-76
2020/12/11 02:39:30;;;;;;;30.40;16.17;;;;;;;;;;5012312;28;20584;-76
2020/12/11 02:42:35;;;;;;;28.83;16.30;;;;;;;;;;4995902;28;20589;-76
2020/12/11 02:45:40;;;;;;;29.87;15.47;;;;;;;;;;4981572;28;20534;-76
2020/12/11 02:48:43;;;;;;;33.97;17.33;;;;;;;;;;4982667;28;20537;-76
2020/12/11 02:51:48;;;;;;;30.57;15.17;;;;;;;;;;4964011;28;20582;-76
2020/12/11 02:54:52;;;;;;;30.43;16.50;;;;;;;;;;4971379;28;21221;-76
2020/12/11 02:57:56;;;;;;;28.87;15.67;;;;;;;;;;5005073;28;20636;-76
2020/12/11 03:01:00;;;;;;;33.37;16.30;;;;;;;;;;4963392;28;20535;-76
2020/12/11 03:04:04;;;;;;;32.87;16.93;;;;;;;;;;4974181;28;20613;-76
2020/12/11 03:07:08;;;;;;;32.33;17.20;;;;;;;;;;4974636;28;20634;-76
2020/12/11 03:10:12;;;;;;;29.37;16.50;;;;;;;;;;4974171;28;20539;-75
2020/12/11 03:13:16;;;;;;;31.23;15.77;;;;;;;;;;4993549;28;20624;-75
2020/12/11 03:16:21;;;;;;;33.83;17.70;;;;;;;;;;4989976;28;20664;-75
2020/12/11 03:19:25;;;;;;;31.30;16.97;;;;;;;;;;5001792;28;20541;-75
2020/12/11 03:22:29;;;;;;;33.70;17.63;;;;;;;;;;5001422;28;20597;-75
2020/12/11 03:25:33;;;;;;;30.90;16.50;;;;;;;;;;4994093;28;20557;-75
2020/12/11 03:28:37;;;;;;;30.53;16.47;;;;;;;;;;4993832;28;20537;-75
2020/12/11 03:31:41;;;;;;;33.40;17.30;;;;;;;;;;4990029;28;20593;-75
2020/12/11 03:34:46;;;;;;;28.70;15.60;;;;;;;;;;5011413;28;20604;-76
2020/12/11 03:37:50;;;;;;;30.07;15.60;;;;;;;;;;4981839;28;20647;-75
2020/12/11 03:40:54;;;;;;;33.20;17.13;;;;;;;;;;4981725;28;20958;-76
2020/12/11 03:43:58;;;;;;;28.10;16.40;;;;;;;;;;4982085;28;20542;-75
2020/12/11 03:47:02;;;;;;;30.37;16.10;;;;;;;;;;4993490;28;20644;-75
2020/12/11 03:50:06;;;;;;;29.17;16.00;;;;;;;;;;4996563;28;20592;-75
2020/12/11 03:53:10;;;;;;;29.27;15.80;;;;;;;;;;5013297;28;20545;-75
2020/12/11 03:56:16;;;;;;;28.30;15.40;;;;;;;;;;5002863;28;20648;-75
2020/12/11 03:59:20;;;;;;;29.73;16.40;;;;;;;;;;5005241;28;20533;-74
2020/12/11 04:02:24;;;;;;;27.97;15.40;;;;;;;;;;5011888;28;20589;-75
2020/12/11 04:05:28;;;;;;;28.17;15.80;;;;;;;;;;5010975;28;20616;-75
2020/12/11 04:08:33;;;;;;;27.13;14.40;;;;;;;;;;5002571;28;20597;-75
2020/12/11 04:11:38;;;;;;;28.23;15.27;;;;;;;;;;4997271;28;20557;-74
2020/12/11 04:14:42;;;;;;;28.27;15.67;;;;;;;;;;4997153;28;20538;-75
2020/12/11 04:17:46;;;;;;;29.33;16.37;;;;;;;;;;4997059;28;20644;-75
2020/12/11 04:20:50;;;;;;;28.67;15.93;;;;;;;;;;4986373;28;20549;-75
2020/12/11 04:23:54;;;;;;;26.83;15.13;;;;;;;;;;5016934;28;20545;-74
2020/12/11 04:26:58;;;;;;;29.20;16.73;;;;;;;;;;5015954;28;20644;-74
2020/12/11 04:30:02;;;;;;;26.83;15.23;;;;;;;;;;5017801;23;20687;-79
2020/12/11 04:33:07;;;;;;;24.97;14.43;;;;;;;;;;4995231;28;20602;-79
2020/12/11 04:36:16;;;;;;;28.03;15.63;;;;;;;;;;4975077;28;20676;-79
2020/12/11 04:39:21;;;;;;;25.47;15.10;;;;;;;;;;4987008;28;20554;-79
2020/12/11 04:42:26;;;;;;;26.47;14.93;;;;;;;;;;4964521;28;20537;-79
2020/12/11 04:45:31;;;;;;;27.60;15.63;;;;;;;;;;4986646;28;20541;-79
2020/12/11 04:48:36;;;;;;;28.17;16.20;;;;;;;;;;5003077;28;20596;-79
2020/12/11 04:51:49;;;;;;;28.27;15.50;;;;;;;;;;5006355;28;20604;-79
2020/12/11 04:54:58;;;;;;;28.17;15.57;;;;;;;;;;4993933;28;20596;-79
2020/12/11 04:58:05;;;;;;;29.63;15.83;;;;;;;;;;4992443;28;20616;-79
2020/12/11 05:01:14;;;;;;;29.03;15.90;;;;;;;;;;4976380;28;20542;-79
2020/12/11 05:04:18;;;;;;;28.40;17.10;;;;;;;;;;5018499;28;20545;-78
2020/12/11 05:07:22;;;;;;;26.70;15.50;;;;;;;;;;5017114;28;20624;-79
2020/12/11 05:10:26;;;;;;;26.07;15.50;;;;;;;;;;4974135;28;20581;-79
2020/12/11 05:13:30;;;;;;;28.03;15.70;;;;;;;;;;4974345;28;20546;-79
2020/12/11 05:16:34;;;;;;;27.30;15.73;;;;;;;;;;4978235;28;20678;-79
2020/12/11 05:19:51;;;;;;;25.07;14.63;;;;;;;;;;4978037;28;20957;-78
2020/12/11 05:23:07;;;;;;;25.93;14.87;;;;;;;;;;4962735;28;20543;-78
2020/12/11 05:26:19;;;;;;;26.87;15.17;;;;;;;;;;4984191;28;20621;-78
2020/12/11 05:29:29;;;;;;;27.53;16.10;;;;;;;;;;4997399;28;20623;-78
2020/12/11 05:32:38;;;;;;;29.30;16.57;;;;;;;;;;4993095;28;20541;-78
2020/12/11 05:35:41;;;;;;;26.03;15.37;;;;;;;;;;4992446;28;20585;-78
2020/12/11 05:38:46;;;;;;;30.00;15.73;;;;;;;;;;4984378;28;20573;-78
2020/12/11 05:41:51;;;;;;;29.50;17.03;;;;;;;;;;4973508;28;21041;-78
2020/12/11 05:44:55;;;;;;;29.47;16.93;;;;;;;;;;4984409;28;20617;-78
2020/12/11 05:47:59;;;;;;;27.10;15.97;;;;;;;;;;4974055;28;20640;-78
2020/12/11 05:51:15;;;;;;;27.53;15.57;;;;;;;;;;5004390;28;20868;-78
2020/12/11 05:54:21;;;;;;;25.30;14.70;;;;;;;;;;4984697;28;20546;-78
2020/12/11 05:57:25;;;;;;;33.83;15.80;;;;;;;;;;4984217;28;20661;-78
2020/12/11 06:00:29;;;;;;;28.57;15.80;;;;;;;;;;4984695;28;20533;-78
2020/12/11 06:03:36;;;;;;;26.90;15.63;;;;;;;;;;4979031;28;20619;-77
2020/12/11 06:06:43;;;;;;;26.30;15.57;;;;;;;;;;5016009;28;21201;-78
2020/12/11 06:09:47;;;;;;;24.37;14.70;;;;;;;;;;4995411;28;20625;-78
2020/12/11 06:12:52;;;;;;;26.90;14.50;;;;;;;;;;4981719;28;20545;-78
2020/12/11 06:15:56;;;;;;;27.90;15.17;;;;;;;;;;4986304;28;20625;-78
2020/12/11 06:19:04;;;;;;;28.33;15.33;;;;;;;;;;4995642;28;20971;-78
2020/12/11 06:22:09;;;;;;;26.83;15.13;;;;;;;;;;4994091;28;20899;-78
2020/12/11 06:25:31;;;;;;;28.97;16.20;;;;;;;;;;4996137;28;20959;-78
2020/12/11 06:28:38;;;;;;;25.43;15.00;;;;;;;;;;4986077;28;20538;-78
2020/12/11 06:31:47;;;;;;;28.83;16.13;;;;;;;;;;4981977;28;20589;-78
2020/12/11 06:35:09;;;;;;;30.97;16.70;;;;;;;;;;5004941;28;20916;-78
2020/12/11 06:38:45;;;;;;;26.77;15.80;;;;;;;;;;4991730;28;20565;-78
2020/12/11 06:41:49;;;;;;;29.97;17.20;;;;;;;;;;4964231;28;20593;-79
2020/12/11 06:45:25;;;;;;;27.10;15.53;;;;;;;;;;4975469;28;20589;-77
2020/12/11 06:48:29;;;;;;;29.20;17.13;;;;;;;;;;4984222;28;20602;-78
2020/12/11 06:51:45;;;;;;;28.40;15.70;;;;;;;;;;5013319;28;20629;-77
2020/12/11 06:54:50;;;;;;;29.40;15.90;;;;;;;;;;4980158;28;20613;-78
2020/12/11 06:57:54;;;;;;;28.93;16.90;;;;;;;;;;4980990;28;20618;-78
2020/12/11 07:00:59;;;;;;;32.20;16.83;;;;;;;;;;4995714;28;20593;-77
2020/12/11 07:04:03;;;;;;;29.63;16.60;;;;;;;;;;4995615;28;20598;-77
2020/12/11 07:07:08;;;;;;;28.07;15.27;;;;;;;;;;5001997;28;20628;-77
2020/12/11 07:10:12;;;;;;;27.73;16.57;;;;;;;;;;5008131;28;21175;-77
2020/12/11 07:13:17;;;;;;;28.73;16.93;;;;;;;;;;4972549;28;20624;-78
2020/12/11 07:16:21;;;;;;;24.40;15.43;;;;;;;;;;5001651;28;21036;-77
2020/12/11 07:19:25;;;;;;;29.47;16.57;;;;;;;;;;4997929;28;20586;-77
2020/12/11 07:22:30;;;;;;;28.67;16.87;;;;;;;;;;5000956;28;21206;-78
2020/12/11 07:25:35;;;;;;;29.70;16.47;;;;;;;;;;5002622;28;20549;-77
2020/12/11 07:28:39;;;;;;;26.73;16.10;;;;;;;;;;4999999;28;20621;-77
2020/12/11 07:31:45;;;;;;;26.73;16.40;;;;;;;;;;5011799;28;20970;-77
2020/12/11 07:34:49;;;;;;;29.53;17.37;;;;;;;;;;5004497;28;21158;-77
2020/12/11 07:37:55;;;;;;;30.20;17.30;;;;;;;;;;5000278;28;20677;-77
2020/12/11 07:41:03;;;;;;;27.83;15.73;;;;;;;;;;4991131;28;20592;-77
2020/12/11 07:44:07;;;;;;;26.70;15.17;;;;;;;;;;5017208;28;20596;-77
2020/12/11 07:47:15;;;;;;;27.83;16.03;;;;;;;;;;4993969;28;20631;-77
2020/12/11 07:50:24;;;;;;;28.83;16.77;;;;;;;;;;5017937;28;20858;-76
2020/12/11 07:53:28;;;;;;;28.83;17.00;;;;;;;;;;5017003;28;20963;-76
2020/12/11 07:56:32;;;;;;;28.03;15.57;;;;;;;;;;4994088;28;20995;-76
2020/12/11 07:59:36;;;;;;;26.87;15.80;;;;;;;;;;4994374;28;20541;-76
2020/12/11 08:02:40;;;;;;;25.93;15.27;;;;;;;;;;4993741;28;20565;-77
2020/12/11 08:05:45;;;;;;;29.27;15.97;;;;;;;;;;5005180;28;20541;-77
2020/12/11 08:08:49;;;;;;;26.53;15.73;;;;;;;;;;5017570;28;20541;-77
2020/12/11 08:11:53;;;;;;;24.90;15.27;;;;;;;;;;5016461;28;20556;-77
2020/12/11 08:14:57;;;;;;;26.47;14.70;;;;;;;;;;4994173;28;20548;-77
2020/12/11 08:18:09;;;;;;;28.63;16.10;;;;;;;;;;5005112;28;21022;-77
2020/12/11 08:21:27;;;;;;;29.10;15.93;;;;;;;;;;5017411;28;20600;-77
2020/12/11 08:24:32;;;;;;;27.20;15.17;;;;;;;;;;5004902;28;20537;-76
2020/12/11 08:27:36;;;;;;;28.53;15.80;;;;;;;;;;5005026;28;21201;-77
2020/12/11 08:30:40;;;;;;;29.80;16.07;;;;;;;;;;5021022;28;20607;-76
2020/12/11 08:33:44;;;;;;;28.70;15.80;;;;;;;;;;5018630;28;20544;-77
2020/12/11 08:36:50;;;;;;;29.43;16.83;;;;;;;;;;5004880;28;20664;-77
2020/12/11 08:40:04;;;;;;;26.87;15.23;;;;;;;;;;5016969;28;21095;-77
2020/12/11 08:46:42;;;;;;;28.07;15.27;;;;;;;;;;5016689;28;20957;-77
2020/12/11 08:49:53;;;;;;;30.93;16.97;;;;;;;;;;5005254;28;20545;-77
2020/12/11 08:53:01;;;;;;;32.00;18.00;;;;;;;;;;5005214;28;20545;-77
2020/12/11 08:56:09;;;;;;;32.20;19.10;;;;;;;;;;5004909;28;20956;-77
2020/12/11 08:59:13;;;;;;;31.73;17.37;;;;;;;;;;5017096;28;20549;-77
2020/12/11 09:02:17;;;;;;;30.93;17.43;;;;;;;;;;5004177;28;20596;-77
2020/12/11 09:05:24;;;;;;;30.53;17.27;;;;;;;;;;5004463;28;20545;-77
2020/12/11 09:08:28;;;;;;;30.23;16.80;;;;;;;;;;5015653;28;20596;-76
2020/12/11 09:11:32;;;;;;;26.73;15.43;;;;;;;;;;5004294;28;20553;-77
2020/12/11 09:14:36;;;;;;;28.63;16.23;;;;;;;;;;4992893;28;20541;-77
2020/12/11 09:17:41;;;;;;;29.93;17.07;;;;;;;;;;5003849;28;20988;-77
2020/12/11 09:20:45;;;;;;;30.00;16.97;;;;;;;;;;5016301;28;20548;-76
2020/12/11 09:23:50;;;;;;;31.20;17.27;;;;;;;;;;5016214;28;20549;-77
2020/12/11 09:26:55;;;;;;;30.13;16.70;;;;;;;;;;5003917;28;21079;-77
2020/12/11 09:30:25;;;;;;;26.63;16.00;;;;;;;;;;5003327;28;20611;-77
2020/12/11 09:33:26;;;;;;;27.17;16.17;;;;;;;;;;5016161;28;20545;-77
2020/12/11 09:36:30;;;;;;;26.03;16.37;;;;;;;;;;5016138;28;20639;-77
2020/12/11 09:39:34;;;;;;;25.67;15.63;;;;;;;;;;5004688;28;20549;-77
2020/12/11 09:46:24;;;;;;;26.60;15.50;;;;;;;;;;5017388;28;20635;-78
2020/12/11 09:49:39;;;;;;;28.87;16.90;;;;;;;;;;5017413;28;20541;-78
2020/12/11 09:52:56;;;;;;;26.47;15.90;;;;;;;;;;5004716;28;20545;-77
2020/12/11 09:56:04;;;;;;;28.80;16.83;;;;;;;;;;5004008;28;20631;-77
2020/12/11 10:02:46;;;;;;;25.10;15.60;;;;;;;;;;5003893;28;20998;-78
2020/12/11 10:05:51;;;;;;;22.67;14.03;;;;;;;;;;4985166;28;20594;-77
2020/12/11 10:08:55;;;;;;;25.63;15.63;;;;;;;;;;4984091;28;20562;-78
2020/12/11 10:12:02;;;;;;;27.33;15.57;;;;;;;;;;4985455;28;20590;-78
2020/12/11 10:15:09;;;;;;;24.70;15.33;;;;;;;;;;4984858;28;20575;-78
2020/12/11 10:18:13;;;;;;;25.77;15.63;;;;;;;;;;4996501;28;20622;-78
2020/12/11 10:21:18;;;;;;;22.87;14.63;;;;;;;;;;4992422;28;20576;-78
2020/12/11 10:24:22;;;;;;;26.03;15.27;;;;;;;;;;4976816;28;20920;-78
2020/12/11 10:27:27;;;;;;;22.90;14.63;;;;;;;;;;4980219;28;20629;-78
2020/12/11 10:30:32;;;;;;;21.57;14.57;;;;;;;;;;5009392;23;20672;-77
2020/12/11 10:33:35;;;;;;;22.60;14.47;;;;;;;;;;5002170;28;20597;-77
2020/12/11 10:36:40;;;;;;;24.90;15.03;;;;;;;;;;4983909;28;20637;-77
2020/12/11 10:39:44;;;;;;;24.43;14.97;;;;;;;;;;4995509;28;20542;-78
2020/12/11 10:42:48;;;;;;;23.80;14.57;;;;;;;;;;5001574;28;20950;-78
2020/12/11 10:45:53;;;;;;;22.23;14.17;;;;;;;;;;4983852;28;20589;-78
2020/12/11 10:48:57;;;;;;;22.47;15.03;;;;;;;;;;4984818;28;20629;-77
2020/12/11 10:52:01;;;;;;;24.03;14.63;;;;;;;;;;4997615;28;20623;-77
2020/12/11 10:55:05;;;;;;;24.87;15.83;;;;;;;;;;4973153;28;20542;-78
2020/12/11 10:58:09;;;;;;;25.17;15.83;;;;;;;;;;4995424;28;20973;-78
2020/12/11 11:01:14;;;;;;;26.80;15.83;;;;;;;;;;4995828;28;21095;-77
2020/12/11 11:04:18;;;;;;;27.57;16.17;;;;;;;;;;4984567;28;20605;-78
2020/12/11 11:07:28;;;;;;;25.80;16.90;;;;;;;;;;4981912;28;20648;-77
2020/12/11 11:10:40;;;;;;;28.40;16.87;;;;;;;;;;4982014;28;21218;-78
2020/12/11 11:27:06;;;;;;;27.50;18.23;;;;;;;;;;4982663;28;20645;-77
2020/12/11 11:30:10;;;;;;;29.80;18.23;;;;;;;;;;4982993;28;20613;-78
2020/12/11 11:33:14;;;;;;;30.83;18.90;;;;;;;;;;4987164;28;20600;-77
2020/12/11 11:36:18;;;;;;;27.03;17.80;;;;;;;;;;5000733;28;20661;-78
2020/12/11 11:39:22;;;;;;;29.63;18.13;;;;;;;;;;5014305;28;20537;-77
2020/12/11 11:42:26;;;;;;;30.77;20.30;;;;;;;;;;4996414;28;20614;-77
2020/12/11 11:45:35;;;;;;;25.37;17.43;;;;;;;;;;4992239;28;20592;-77
2020/12/11 11:48:43;;;;;;;24.03;15.80;;;;;;;;;;5015250;28;20529;-78
2020/12/11 11:52:06;;;;;;;24.40;16.40;;;;;;;;;;5002719;28;20537;-78
2020/12/11 11:55:11;;;;;;;25.47;15.93;;;;;;;;;;5003036;28;20557;-78
2020/12/11 11:58:16;;;;;;;25.53;17.00;;;;;;;;;;5014993;28;20588;-78
2020/12/11 12:01:20;;;;;;;25.47;17.67;;;;;;;;;;5014501;28;20549;-78
2020/12/11 12:04:24;;;;;;;24.77;16.67;;;;;;;;;;5003504;28;20557;-78
2020/12/11 12:07:28;;;;;;;22.70;15.50;;;;;;;;;;4990740;28;20635;-78
2020/12/11 12:10:32;;;;;;;26.83;17.27;;;;;;;;;;5002134;28;20596;-78
2020/12/11 12:13:37;;;;;;;21.13;15.13;;;;;;;;;;5012964;28;20600;-78
2020/12/11 12:16:42;;;;;;;24.10;17.03;;;;;;;;;;5002613;28;20640;-78
2020/12/11 12:19:49;;;;;;;21.50;15.07;;;;;;;;;;5018911;28;20530;-78
2020/12/11 12:29:29;;;;;;;25.00;17.13;;;;;;;;;;5005839;28;21198;-78
2020/12/11 12:32:46;;;;;;;26.83;17.70;;;;;;;;;;5005800;28;20560;-78
2020/12/11 12:45:27;;;;;;;24.87;16.40;;;;;;;;;;5005418;28;20545;-77
2020/12/11 12:48:31;;;;;;;26.90;16.63;;;;;;;;;;5005292;28;20552;-77
2020/12/11 12:51:35;;;;;;;24.07;16.97;;;;;;;;;;4994215;28;20541;-77
2020/12/11 12:54:39;;;;;;;24.67;16.70;;;;;;;;;;5016817;28;20548;-77
2020/12/11 12:57:50;;;;;;;21.47;15.60;;;;;;;;;;5017145;28;20643;-77
2020/12/11 13:01:12;;;;;;;22.53;15.17;;;;;;;;;;5006360;28;20548;-78
2020/12/11 13:07:39;;;;;;;25.13;18.27;;;;;;;;;;5018588;28;20972;-78
2020/12/11 13:10:43;;;;;;;25.83;18.17;;;;;;;;;;5005855;28;20603;-78
2020/12/11 13:13:47;;;;;;;24.70;17.40;;;;;;;;;;5017363;28;20935;-79
2020/12/11 13:16:52;;;;;;;26.77;18.10;;;;;;;;;;4994842;28;20612;-78
2020/12/11 13:19:56;;;;;;;24.10;16.70;;;;;;;;;;4984477;28;20533;-79
2020/12/11 13:26:42;;;;;;;27.13;17.23;;;;;;;;;;5005517;28;20619;-79
2020/12/11 13:29:46;;;;;;;26.33;16.83;;;;;;;;;;5016207;28;20620;-79
2020/12/11 13:32:50;;;;;;;24.57;15.90;;;;;;;;;;5017409;28;20912;-79
2020/12/11 13:35:55;;;;;;;29.17;18.03;;;;;;;;;;5005863;28;20540;-78
2020/12/11 13:38:59;;;;;;;26.17;16.33;;;;;;;;;;4994015;28;21139;-79
2020/12/11 13:42:04;;;;;;;28.13;16.87;;;;;;;;;;5005661;28;20549;-79
2020/12/11 13:45:09;;;;;;;29.37;17.80;;;;;;;;;;5005640;28;20540;-79
2020/12/11 13:48:13;;;;;;;26.40;17.10;;;;;;;;;;4994463;28;20552;-79
2020/12/11 13:51:19;;;;;;;31.57;18.83;;;;;;;;;;5003826;28;20972;-79
2020/12/11 13:54:23;;;;;;;32.50;17.70;;;;;;;;;;5002293;28;20584;-78
2020/12/11 13:57:27;;;;;;;30.23;17.23;;;;;;;;;;4973978;28;20652;-79
2020/12/11 14:00:32;;;;;;;27.30;16.17;;;;;;;;;;4985368;28;20533;-78
2020/12/11 14:03:37;;;;;;;33.47;16.80;;;;;;;;;;5005614;28;20589;-79
2020/12/11 14:06:41;;;;;;;29.27;17.73;;;;;;;;;;4994255;28;20992;-79
2020/12/11 14:09:49;;;;;;;23.53;15.70;;;;;;;;;;4984013;28;20549;-79
2020/12/11 14:12:53;;;;;;;27.83;16.83;;;;;;;;;;4994772;28;20537;-78
2020/12/11 14:15:57;;;;;;;26.63;16.70;;;;;;;;;;4997039;28;20533;-78
2020/12/11 14:22:25;;;;;;;26.63;17.20;;;;;;;;;;5003727;28;20545;-78
2020/12/11 14:25:29;;;;;;;27.60;17.43;;;;;;;;;;5003254;28;20991;-78
2020/12/11 14:28:33;;;;;;;28.50;18.10;;;;;;;;;;5004339;28;20545;-79
2020/12/11 14:31:38;;;;;;;29.53;18.40;;;;;;;;;;5015783;28;20608;-79
2020/12/11 14:34:45;;;;;;;30.10;18.17;;;;;;;;;;5016299;28;20544;-79
2020/12/11 14:37:50;;;;;;;29.53;18.40;;;;;;;;;;4993469;28;20623;-78
2020/12/11 14:40:54;;;;;;;27.73;17.90;;;;;;;;;;5004606;28;20565;-78
2020/12/11 14:43:58;;;;;;;29.63;18.10;;;;;;;;;;5015866;28;20565;-78
2020/12/11 14:47:05;;;;;;;30.63;20.03;;;;;;;;;;5015673;28;20643;-78
2020/12/11 14:50:09;;;;;;;34.30;19.70;;;;;;;;;;5003741;28;20537;-78
2020/12/11 14:53:14;;;;;;;26.53;17.77;;;;;;;;;;5003912;28;20537;-77
2020/12/11 14:56:18;;;;;;;35.80;18.43;;;;;;;;;;4996527;28;20628;-78
2020/12/11 14:59:24;;;;;;;27.97;17.83;;;;;;;;;;4997755;28;20596;-79
2020/12/11 15:02:29;;;;;;;30.77;18.40;;;;;;;;;;4996747;28;20611;-78
2020/12/11 15:05:33;;;;;;;30.23;17.87;;;;;;;;;;5005349;28;20560;-79
2020/12/11 15:08:41;;;;;;;27.97;16.07;;;;;;;;;;5004461;28;20553;-78
2020/12/11 15:11:48;;;;;;;34.23;17.10;;;;;;;;;;4997590;28;20584;-78
2020/12/11 15:14:53;;;;;;;27.80;15.77;;;;;;;;;;4994781;28;20597;-77
2020/12/11 15:17:57;;;;;;;31.33;16.90;;;;;;;;;;4995610;28;20991;-77
2020/12/11 15:21:01;;;;;;;32.43;16.27;;;;;;;;;;4984319;28;21174;-78
2020/12/11 15:24:12;;;;;;;27.53;15.10;;;;;;;;;;4985111;28;20605;-77
2020/12/11 15:27:16;;;;;;;30.10;16.37;;;;;;;;;;5003212;28;20652;-77
2020/12/11 15:30:20;;;;;;;27.10;14.73;;;;;;;;;;4989967;28;20628;-77
2020/12/11 15:33:24;;;;;;;27.63;14.60;;;;;;;;;;4994050;28;20550;-76
2020/12/11 15:36:28;;;;;;;25.87;13.60;;;;;;;;;;4995984;28;20997;-78
2020/12/11 15:39:33;;;;;;;26.60;13.67;;;;;;;;;;5015540;28;20588;-77
2020/12/11 15:42:38;;;;;;;26.27;13.50;;;;;;;;;;5013637;28;20620;-77
2020/12/11 15:45:43;;;;;;;23.67;12.90;;;;;;;;;;4987891;28;20597;-77
2020/12/11 15:48:49;;;;;;;33.10;18.90;;;;;;;;;;4977971;28;21140;-75
2020/12/11 15:51:53;;;;;;;28.00;15.70;;;;;;;;;;5000499;28;20628;-77
2020/12/11 15:54:57;;;;;;;25.07;14.30;;;;;;;;;;5000572;28;20596;-77
2020/12/11 15:58:01;;;;;;;23.67;13.03;;;;;;;;;;5005612;28;20996;-77
2020/12/11 16:01:05;;;;;;;22.43;12.87;;;;;;;;;;5001395;28;20595;-77
2020/12/11 16:04:09;;;;;;;21.07;11.93;;;;;;;;;;5015979;28;20596;-77
2020/12/11 16:07:14;;;;;;;23.73;13.03;;;;;;;;;;4996326;28;20662;-77
2020/12/11 16:10:18;;;;;;;22.23;12.33;;;;;;;;;;5011344;28;20569;-77
2020/12/11 16:13:22;;;;;;;24.07;13.23;;;;;;;;;;5000345;28;20542;-77
2020/12/11 16:16:27;;;;;;;22.80;12.80;;;;;;;;;;5016384;28;21269;-77
2020/12/11 16:19:31;;;;;;;25.50;13.23;;;;;;;;;;5017893;28;20935;-77
2020/12/11 16:22:36;;;;;;;20.17;12.23;;;;;;;;;;4991724;28;20597;-77
2020/12/11 16:25:40;;;;;;;24.53;13.00;;;;;;;;;;5007058;28;20645;-77
2020/12/11 16:28:45;;;;;;;23.23;13.40;;;;;;;;;;5002269;28;20960;-77
2020/12/11 16:31:50;;;;;;;24.00;13.57;;;;;;;;;;5004700;28;20593;-78
2020/12/11 16:34:54;;;;;;;24.30;13.53;;;;;;;;;;4972138;28;20592;-78
2020/12/11 16:37:59;;;;;;;24.93;12.90;;;;;;;;;;4993576;28;20640;-77
2020/12/11 16:41:03;;;;;;;25.17;13.13;;;;;;;;;;5019330;28;20544;-78
2020/12/11 16:44:30;;;;;;;25.67;13.27;;;;;;;;;;5009370;28;20601;-78
2020/12/11 16:47:38;;;;;;;27.17;13.80;;;;;;;;;;5001972;28;20648;-78
2020/12/11 16:50:42;;;;;;;27.83;14.90;;;;;;;;;;4995158;28;21086;-78
2020/12/11 16:53:46;;;;;;;26.97;14.67;;;;;;;;;;4996441;28;20597;-77
2020/12/11 16:56:50;;;;;;;27.27;15.20;;;;;;;;;;4997955;28;20643;-77
2020/12/11 17:00:00;;;;;;;29.57;16.30;;;;;;;;;;4985135;28;20968;-77
2020/12/11 17:03:35;;;;;;;32.77;17.20;;;;;;;;;;4989262;28;20625;-76
2020/12/11 17:06:51;;;;;;;38.83;19.53;;;;;;;;;;4991931;28;20647;-77
2020/12/11 17:09:55;;;;;;;37.50;19.93;;;;;;;;;;5004083;28;20538;-76
2020/12/11 17:13:00;;;;;;;36.83;19.53;;;;;;;;;;4997281;28;20625;-76
2020/12/11 17:16:04;;;;;;;40.97;21.80;;;;;;;;;;5001227;28;20656;-77
2020/12/11 17:19:08;;;;;;;38.23;20.90;;;;;;;;;;4997919;28;20625;-76
2020/12/11 17:22:12;;;;;;;42.37;20.97;;;;;;;;;;4979792;28;20617;-78
2020/12/11 17:25:16;;;;;;;40.20;22.03;;;;;;;;;;4986724;28;20589;-78
2020/12/11 17:28:24;;;;;;;40.70;20.93;;;;;;;;;;4987253;28;20545;-78
2020/12/11 17:37:43;;;;;;;35.33;19.47;;;;;;;;;;5005720;28;20625;-77
2020/12/11 17:40:47;;;;;;;34.73;19.23;;;;;;;;;;4992103;28;20632;-78
2020/12/11 17:43:52;;;;;;;33.67;18.83;;;;;;;;;;5013925;28;20957;-78
2020/12/11 17:46:56;;;;;;;34.73;18.97;;;;;;;;;;4981850;28;20652;-77
2020/12/11 17:50:00;;;;;;;29.07;17.20;;;;;;;;;;4982080;28;20589;-77
2020/12/11 17:53:05;;;;;;;28.53;16.77;;;;;;;;;;5002681;28;20979;-77
2020/12/11 17:56:12;;;;;;;28.43;15.77;;;;;;;;;;4966148;28;20642;-78
2020/12/11 17:59:17;;;;;;;28.47;15.37;;;;;;;;;;4978501;28;20599;-77
2020/12/11 18:02:21;;;;;;;31.20;17.17;;;;;;;;;;4978491;28;20547;-77
2020/12/11 18:05:27;;;;;;;30.33;16.07;;;;;;;;;;4985267;28;20589;-77
2020/12/11 18:08:31;;;;;;;26.97;15.50;;;;;;;;;;4974517;28;20546;-78
2020/12/11 18:11:35;;;;;;;33.67;17.67;;;;;;;;;;5006408;28;20663;-76
2020/12/11 18:14:39;;;;;;;32.53;16.97;;;;;;;;;;4991126;28;20549;-76
2020/12/11 18:17:43;;;;;;;35.37;18.27;;;;;;;;;;4994036;28;20649;-77
2020/12/11 18:20:47;;;;;;;32.93;18.07;;;;;;;;;;4987282;28;20649;-77
2020/12/11 18:23:52;;;;;;;30.43;17.17;;;;;;;;;;4995837;28;20550;-78
2020/12/11 18:26:59;;;;;;;32.33;18.40;;;;;;;;;;5001561;28;20647;-76
2020/12/11 18:30:04;;;;;;;33.63;18.33;;;;;;;;;;4998556;28;20632;-77
2020/12/11 18:33:09;;;;;;;35.40;18.10;;;;;;;;;;5014121;28;20608;-77
2020/12/11 18:36:14;;;;;;;31.77;17.17;;;;;;;;;;4993770;28;20992;-76
2020/12/11 18:39:18;;;;;;;30.80;16.80;;;;;;;;;;5012851;28;20620;-76
2020/12/11 18:42:23;;;;;;;30.60;16.87;;;;;;;;;;4988071;28;20603;-76
2020/12/11 18:45:29;;;;;;;34.57;17.43;;;;;;;;;;4996774;28;20596;-77
2020/12/11 18:48:34;;;;;;;29.60;17.53;;;;;;;;;;4995288;28;20589;-77
2020/12/11 18:51:42;;;;;;;31.30;16.73;;;;;;;;;;5001020;28;20581;-77
2020/12/11 18:54:47;;;;;;;29.53;17.03;;;;;;;;;;4973708;28;21174;-77
2020/12/11 18:57:51;;;;;;;29.50;17.07;;;;;;;;;;4989534;28;20636;-76